Welcome to Northern Hawkes Bay. New Zealand.
PWS Header
      nz Flag



Hit Counter


W3C Valid W3C Valid logo


    Wairoa

Select any of the Stations below to visit their websites.










Historic Data from Weather Underground
Select the location of interest below. Wairoa is the default. Please have patience, this Data is slow to load in.
Northern Hawkes Bay Historical Data
Daily Summary for July 15, 2017 Units:  Metric    English   Both
« Previous Day
Next Day »
Daily Weekly Monthly Yearly Custom
  High: Low: Average:
Temperature: 12.7 °C 4.3 °C 9.1 °C
Dew Point: 8.7 °C 3.7 °C 6.6 °C
Humidity: 98% 65% 85%
Wind Speed: 37.8km/h 0.0km/h 12.4km/h
Wind Gust: 48.9km/h - -
Wind- - WSW
Pressure: 1023.6 hPa 1016.5 hPa -
Precipitation: 14.5 mm    
Historical Graphs
 
 
Tabular Data for July 15, 2017
Time Temperature Dew Point Pressure Wind Wind Speed Wind Gust Humidity Rainfall Rate (Hourly) solar
00:04 9.8 °C 8.6 °C 1016.5 hPa SSW 23.3 km/h 36.7 km/h 92% 0.5 mm 0 W/m2
00:09 9.6 °C 8.7 °C 1016.5 hPa SW 21.9 km/h 36.7 km/h 94% 0.5 mm 0 W/m2
00:14 9.4 °C 8.5 °C 1016.5 hPa WSW 27.0 km/h 37.8 km/h 94% 1.3 mm 0 W/m2
00:17 9.4 °C 8.7 °C 1016.5 hPa WSW 31.7 km/h 37.8 km/h 95% 1.5 mm 0 W/m2
00:22 9.4 °C 8.7 °C 1016.5 hPa SW 21.9 km/h 37.8 km/h 95% 1.8 mm 0 W/m2
00:27 9.2 °C 8.4 °C 1016.8 hPa SW 19.5 km/h 42.8 km/h 95% 2.0 mm 0 W/m2
00:32 9.2 °C 8.6 °C 1016.8 hPa SW 27.0 km/h 42.8 km/h 96% 2.8 mm 0 W/m2
00:37 9.1 °C 8.5 °C 1016.8 hPa SW 31.7 km/h 48.9 km/h 96% 3.3 mm 0 W/m2
00:42 8.9 °C 8.4 °C 1016.8 hPa WSW 24.5 km/h 48.9 km/h 97% 3.3 mm 0 W/m2
00:47 8.7 °C 8.3 °C 1016.8 hPa SW 31.7 km/h 48.9 km/h 97% 3.6 mm 0 W/m2
00:52 8.8 °C 8.5 °C 1016.8 hPa SW 25.6 km/h 41.7 km/h 98% 3.6 mm 0 W/m2
00:57 8.9 °C 8.6 °C 1016.8 hPa WSW 24.5 km/h 42.8 km/h 98% 3.8 mm 0 W/m2
01:02 8.7 °C 8.3 °C 1017.2 hPa WSW 33.1 km/h 46.5 km/h 97% 3.8 mm 0 W/m2
01:07 8.7 °C 8.3 °C 1017.2 hPa WSW 31.7 km/h 46.5 km/h 97% 4.6 mm 0 W/m2
01:12 8.7 °C 8.3 °C 1017.2 hPa SW 15.8 km/h 42.8 km/h 97% 4.3 mm 0 W/m2
01:17 8.7 °C 8.3 °C 1017.2 hPa SW 27.0 km/h 42.8 km/h 97% 3.8 mm 0 W/m2
01:22 8.8 °C 8.3 °C 1017.2 hPa SW 27.0 km/h 47.9 km/h 97% 3.8 mm 0 W/m2
01:27 8.7 °C 8.1 °C 1017.2 hPa SW 24.5 km/h 47.9 km/h 96% 3.6 mm 0 W/m2
01:32 8.9 °C 8.3 °C 1017.5 hPa SW 21.9 km/h 43.9 km/h 96% 3.3 mm 0 W/m2
01:37 8.8 °C 8.2 °C 1017.8 hPa WSW 24.5 km/h 43.9 km/h 96% 2.8 mm 0 W/m2
01:42 8.7 °C 8.1 °C 1017.8 hPa WSW 20.9 km/h 40.4 km/h 96% 3.0 mm 0 W/m2
01:47 8.6 °C 8.0 °C 1017.8 hPa WSW 24.5 km/h 42.8 km/h 96% 3.0 mm 0 W/m2
01:52 8.9 °C 8.3 °C 1017.8 hPa SW 25.6 km/h 46.5 km/h 96% 3.0 mm 0 W/m2
01:57 8.9 °C 8.3 °C 1018.2 hPa SW 23.3 km/h 46.5 km/h 96% 3.0 mm 0 W/m2
02:02 8.8 °C 8.2 °C 1018.2 hPa SW 28.0 km/h 42.8 km/h 96% 3.0 mm 0 W/m2
02:07 8.6 °C 8.0 °C 1018.5 hPa SW 21.9 km/h 42.8 km/h 96% 2.8 mm 0 W/m2
02:12 8.6 °C 8.0 °C 1018.2 hPa SW 37.8 km/h 45.4 km/h 96% 3.0 mm 0 W/m2
02:17 8.7 °C 8.3 °C 1018.5 hPa SW 33.1 km/h 45.4 km/h 97% 3.3 mm 0 W/m2
02:22 8.6 °C 8.2 °C 1018.2 hPa SW 25.6 km/h 45.4 km/h 97% 3.6 mm 0 W/m2
02:27 8.7 °C 8.3 °C 1018.5 hPa SW 29.4 km/h 45.4 km/h 97% 3.8 mm 0 W/m2
02:32 8.8 °C 8.3 °C 1018.5 hPa SW 29.4 km/h 45.4 km/h 97% 3.8 mm 0 W/m2
02:37 8.7 °C 8.3 °C 1018.8 hPa SW 18.3 km/h 42.8 km/h 97% 4.3 mm 0 W/m2
02:42 8.7 °C 8.1 °C 1018.8 hPa SSW 21.9 km/h 42.8 km/h 96% 3.8 mm 0 W/m2
02:47 8.8 °C 8.2 °C 1018.8 hPa SW 24.5 km/h 40.4 km/h 96% 3.8 mm 0 W/m2
02:52 8.8 °C 8.2 °C 1018.8 hPa SSW 15.8 km/h 43.9 km/h 96% 4.3 mm 0 W/m2
02:57 8.8 °C 8.2 °C 1018.8 hPa SW 18.3 km/h 43.9 km/h 96% 4.3 mm 0 W/m2
03:02 8.7 °C 8.1 °C 1018.8 hPa SSW 21.9 km/h 39.3 km/h 96% 4.3 mm 0 W/m2
03:06 8.7 °C 7.9 °C 1018.8 hPa SSW 28.0 km/h 37.8 km/h 95% 4.3 mm 0 W/m2
03:12 8.6 °C 8.0 °C 1019.2 hPa SW 20.9 km/h 39.3 km/h 96% 3.8 mm 0 W/m2
03:17 8.6 °C 8.0 °C 1019.2 hPa SW 17.2 km/h 39.3 km/h 96% 3.8 mm 0 W/m2
03:22 8.6 °C 8.0 °C 1018.8 hPa SSW 23.3 km/h 35.6 km/h 96% 4.3 mm 0 W/m2
03:27 8.7 °C 8.1 °C 1018.8 hPa SSW 23.3 km/h 35.6 km/h 96% 3.8 mm 0 W/m2
03:32 8.8 °C 8.2 °C 1019.2 hPa SSW 31.7 km/h 47.9 km/h 96% 3.8 mm 0 W/m2
03:37 8.8 °C 8.1 °C 1019.2 hPa SW 18.3 km/h 47.9 km/h 95% 3.6 mm 0 W/m2
03:42 8.7 °C 7.9 °C 1019.2 hPa SW 30.6 km/h 47.9 km/h 95% 3.8 mm 0 W/m2
03:46 8.7 °C 7.9 °C 1018.8 hPa SW 20.9 km/h 40.4 km/h 95% 3.6 mm 0 W/m2
03:57 9.0 °C 7.9 °C 1018.8 hPa SW 20.9 km/h 34.3 km/h 93% 3.0 mm 0 W/m2
04:02 9.0 °C 7.9 °C 1018.8 hPa SW 14.8 km/h 40.4 km/h 93% 2.8 mm 0 W/m2
04:07 9.1 °C 8.1 °C 1018.8 hPa SW 28.0 km/h 40.4 km/h 93% 2.3 mm 0 W/m2
04:12 9.1 °C 7.9 °C 1018.8 hPa SW 17.2 km/h 37.8 km/h 92% 2.0 mm 0 W/m2
04:16 9.1 °C 7.9 °C 1018.8 hPa SW 15.8 km/h 35.6 km/h 92% 1.8 mm 0 W/m2
04:21 9.1 °C 7.9 °C 1018.8 hPa SW 24.5 km/h 31.7 km/h 92% 1.0 mm 0 W/m2
04:27 9.1 °C 7.9 °C 1018.8 hPa SW 20.9 km/h 31.7 km/h 92% 1.0 mm 0 W/m2
04:32 9.3 °C 7.9 °C 1018.8 hPa SW 23.3 km/h 31.7 km/h 91% 1.0 mm 0 W/m2
04:37 9.3 °C 7.7 °C 1018.8 hPa SW 23.3 km/h 31.7 km/h 90% 1.0 mm 0 W/m2
04:42 9.3 °C 7.7 °C 1018.8 hPa WSW 11.1 km/h 31.7 km/h 90% 0.3 mm 0 W/m2
04:46 9.2 °C 7.7 °C 1018.8 hPa SW 17.2 km/h 28.0 km/h 90% 0.3 mm 0 W/m2
04:52 9.1 °C 7.4 °C 1019.2 hPa SW 20.9 km/h 34.3 km/h 89% 0.3 mm 0 W/m2
04:56 9.1 °C 7.4 °C 1019.2 hPa SW 15.8 km/h 34.3 km/h 89% 0.3 mm 0 W/m2
05:01 9.0 °C 7.1 °C 1019.2 hPa SW 17.2 km/h 34.3 km/h 88% 0.3 mm 0 W/m2
05:07 9.1 °C 7.2 °C 1018.8 hPa WSW 12.2 km/h 31.7 km/h 88% 0.3 mm 0 W/m2
05:11 9.0 °C 7.1 °C 1019.2 hPa WSW 13.4 km/h 35.6 km/h 88% 0.3 mm 0 W/m2
05:17 9.0 °C 7.3 °C 1019.2 hPa WSW 18.3 km/h 35.6 km/h 89% 0.3 mm 0 W/m2
05:21 8.9 °C 7.3 °C 1019.5 hPa WSW 13.4 km/h 34.3 km/h 90% 0.3 mm 0 W/m2
05:26 8.7 °C 7.2 °C 1019.5 hPa WSW 18.3 km/h 27.0 km/h 90% 0.3 mm 0 W/m2
05:31 8.8 °C 7.4 °C 1019.5 hPa WSW 17.2 km/h 29.4 km/h 91% 0.0 mm 0 W/m2
05:37 8.8 °C 7.4 °C 1019.2 hPa West 17.2 km/h 29.4 km/h 91% 0.0 mm 0 W/m2
05:42 8.8 °C 7.4 °C 1019.5 hPa West 18.3 km/h 30.6 km/h 91% 0.0 mm 0 W/m2
05:47 8.8 °C 7.4 °C 1019.5 hPa West 11.1 km/h 31.7 km/h 91% 0.0 mm 0 W/m2
05:51 8.7 °C 7.3 °C 1019.5 hPa West 17.2 km/h 34.3 km/h 91% 0.0 mm 0 W/m2
05:56 8.6 °C 7.2 °C 1019.5 hPa WSW 13.4 km/h 34.3 km/h 91% 0.0 mm 0 W/m2
06:01 8.6 °C 7.2 °C 1019.5 hPa WSW 21.9 km/h 29.4 km/h 91% 0.0 mm 0 W/m2
06:06 8.6 °C 7.2 °C 1019.5 hPa WSW 21.9 km/h 28.0 km/h 91% 0.0 mm 0 W/m2
06:11 8.7 °C 7.3 °C 1019.5 hPa WSW 18.3 km/h 30.6 km/h 91% 0.0 mm 0 W/m2
06:17 8.7 °C 7.2 °C 1019.5 hPa WSW 15.8 km/h 30.6 km/h 90% 0.0 mm 0 W/m2
06:22 8.7 °C 7.2 °C 1019.9 hPa WSW 13.4 km/h 33.1 km/h 90% 0.0 mm 0 W/m2
06:26 8.6 °C 7.1 °C 1019.5 hPa SW 14.8 km/h 33.1 km/h 90% 0.0 mm 0 W/m2
06:32 8.6 °C 7.1 °C 1019.9 hPa SW 15.8 km/h 31.7 km/h 90% 0.0 mm 0 W/m2
06:36 8.6 °C 7.1 °C 1019.5 hPa WSW 15.8 km/h 31.7 km/h 90% 0.0 mm 0 W/m2
06:40 8.6 °C 7.1 °C 1019.9 hPa WSW 12.2 km/h 31.7 km/h 90% 0.0 mm 0 W/m2
06:45 8.5 °C 6.9 °C 1019.5 hPa WSW 19.5 km/h 35.6 km/h 90% 0.0 mm 0 W/m2
06:50 8.5 °C 6.9 °C 1019.9 hPa WSW 19.5 km/h 36.7 km/h 90% 0.0 mm 0 W/m2
07:08 8.5 °C 6.9 °C 1020.2 hPa WSW 15.8 km/h 31.7 km/h 90% 0.0 mm 0 W/m2
07:13 8.6 °C 7.1 °C 1020.2 hPa SW 13.4 km/h 31.7 km/h 90% 0.0 mm 0 W/m2
07:19 8.7 °C 7.0 °C 1020.2 hPa SW 21.9 km/h 31.7 km/h 89% 0.0 mm 0 W/m2
07:23 8.9 °C 6.8 °C 1020.2 hPa SW 21.9 km/h 33.1 km/h 87% 0.0 mm 0 W/m2
07:28 9.0 °C 6.8 °C 1020.5 hPa SW 17.2 km/h 34.3 km/h 86% 0.0 mm 0 W/m2
07:33 9.2 °C 6.7 °C 1020.5 hPa SW 15.8 km/h 34.3 km/h 84% 0.0 mm 1 W/m2
07:39 9.3 °C 6.6 °C 1020.5 hPa SW 17.2 km/h 33.1 km/h 83% 0.0 mm 1 W/m2
07:44 9.4 °C 6.8 °C 1020.5 hPa SW 17.2 km/h 29.4 km/h 84% 0.0 mm 3 W/m2
07:48 9.3 °C 6.9 °C 1020.5 hPa SW 17.2 km/h 33.1 km/h 85% 0.0 mm 7 W/m2
08:10 9.4 °C 7.0 °C 1020.5 hPa WSW 17.2 km/h 25.6 km/h 85% 0.0 mm 19 W/m2
08:15 9.4 °C 7.0 °C 1020.9 hPa SW 17.2 km/h 25.6 km/h 85% 0.0 mm 25 W/m2
08:20 9.4 °C 7.0 °C 1020.9 hPa SW 19.5 km/h 29.4 km/h 85% 0.0 mm 33 W/m2
08:25 9.4 °C 7.0 °C 1020.9 hPa SW 13.4 km/h 31.7 km/h 85% 0.0 mm 31 W/m2
08:30 9.4 °C 7.0 °C 1020.9 hPa SW 14.8 km/h 31.7 km/h 85% 0.0 mm 38 W/m2
08:35 9.5 °C 7.1 °C 1020.9 hPa SW 15.8 km/h 29.4 km/h 85% 0.0 mm 30 W/m2
08:40 9.4 °C 6.8 °C 1020.9 hPa SW 13.4 km/h 24.5 km/h 84% 0.0 mm 32 W/m2
08:45 9.4 °C 6.8 °C 1020.9 hPa SW 13.4 km/h 25.6 km/h 84% 0.0 mm 89 W/m2
08:50 9.4 °C 7.0 °C 1021.2 hPa WSW 14.8 km/h 25.6 km/h 85% 0.0 mm 57 W/m2
08:55 9.5 °C 6.9 °C 1021.2 hPa WSW 15.8 km/h 27.0 km/h 84% 0.0 mm 61 W/m2
09:00 9.6 °C 7.1 °C 1021.2 hPa WSW 15.8 km/h 33.1 km/h 84% 0.0 mm 131 W/m2
09:05 9.8 °C 7.4 °C 1021.2 hPa WSW 14.8 km/h 33.1 km/h 85% 0.0 mm 55 W/m2
09:10 9.7 °C 7.3 °C 1021.2 hPa WSW 21.9 km/h 29.4 km/h 85% 0.0 mm 41 W/m2
09:15 9.3 °C 6.7 °C 1021.6 hPa WSW 12.2 km/h 29.4 km/h 84% 0.0 mm 45 W/m2
09:20 9.1 °C 6.6 °C 1021.6 hPa West 3.5 km/h 29.4 km/h 84% 0.0 mm 57 W/m2
09:25 9.0 °C 6.6 °C 1021.6 hPa West 14.8 km/h 20.9 km/h 85% 0.0 mm 53 W/m2
09:30 9.1 °C 6.7 °C 1021.6 hPa WSW 13.4 km/h 23.3 km/h 85% 0.0 mm 56 W/m2
09:35 9.1 °C 6.7 °C 1021.6 hPa WSW 6.1 km/h 23.3 km/h 85% 0.0 mm 40 W/m2
09:40 9.1 °C 6.6 °C 1021.6 hPa West 8.7 km/h 23.3 km/h 84% 0.0 mm 91 W/m2
09:45 9.2 °C 6.7 °C 1021.6 hPa West 12.2 km/h 29.4 km/h 84% 0.0 mm 93 W/m2
09:50 9.2 °C 6.3 °C 1021.6 hPa West 17.2 km/h 33.1 km/h 82% 0.0 mm 99 W/m2
09:55 9.3 °C 6.4 °C 1021.6 hPa West 8.7 km/h 33.1 km/h 82% 0.0 mm 89 W/m2
10:00 9.3 °C 6.2 °C 1021.6 hPa WNW 12.2 km/h 27.0 km/h 81% 0.0 mm 105 W/m2
10:05 9.8 °C 6.9 °C 1021.6 hPa WSW 15.8 km/h 27.0 km/h 82% 0.0 mm 113 W/m2
10:10 9.8 °C 6.7 °C 1021.9 hPa WSW 11.1 km/h 21.9 km/h 81% 0.0 mm 130 W/m2
10:15 9.9 °C 6.6 °C 1021.9 hPa WSW 8.7 km/h 21.9 km/h 80% 0.0 mm 110 W/m2
10:20 9.8 °C 6.5 °C 1022.2 hPa WSW 7.2 km/h 19.5 km/h 80% 0.0 mm 87 W/m2
10:25 9.6 °C 6.5 °C 1021.9 hPa WSW 6.1 km/h 19.5 km/h 81% 0.0 mm 101 W/m2
10:30 9.5 °C 6.6 °C 1021.9 hPa WSW 6.1 km/h 19.5 km/h 82% 0.0 mm 96 W/m2
10:35 10.3 °C 7.2 °C 1022.2 hPa WSW 15.8 km/h 21.9 km/h 81% 0.0 mm 164 W/m2
10:40 10.5 °C 6.8 °C 1022.2 hPa SW 19.5 km/h 34.3 km/h 78% 0.0 mm 109 W/m2
10:45 10.2 °C 6.6 °C 1022.2 hPa SW 24.5 km/h 34.3 km/h 78% 0.0 mm 114 W/m2
10:50 10.0 °C 6.3 °C 1021.9 hPa West 15.8 km/h 34.3 km/h 78% 0.0 mm 103 W/m2
10:55 9.9 °C 6.4 °C 1021.9 hPa West 9.7 km/h 34.3 km/h 79% 0.0 mm 118 W/m2
11:00 10.2 °C 6.7 °C 1022.2 hPa WSW 23.3 km/h 30.6 km/h 79% 0.0 mm 180 W/m2
11:05 10.7 °C 6.8 °C 1022.2 hPa SW 18.3 km/h 28.0 km/h 77% 0.0 mm 173 W/m2
11:10 10.8 °C 6.9 °C 1022.2 hPa WSW 18.3 km/h 30.6 km/h 77% 0.0 mm 196 W/m2
11:15 10.7 °C 6.8 °C 1022.2 hPa SW 24.5 km/h 31.7 km/h 77% 0.0 mm 136 W/m2
11:20 10.4 °C 6.6 °C 1022.2 hPa SW 21.9 km/h 31.7 km/h 77% 0.0 mm 101 W/m2
11:25 10.1 °C 6.3 °C 1022.2 hPa SW 11.1 km/h 29.4 km/h 77% 0.0 mm 85 W/m2
11:30 10.1 °C 6.4 °C 1021.9 hPa SW 13.4 km/h 27.0 km/h 78% 0.0 mm 105 W/m2
11:35 10.1 °C 6.6 °C 1021.9 hPa SW 17.2 km/h 29.4 km/h 79% 0.0 mm 164 W/m2
11:40 10.3 °C 6.4 °C 1021.6 hPa SW 19.5 km/h 29.4 km/h 77% 0.0 mm 145 W/m2
11:45 10.3 °C 6.4 °C 1021.6 hPa WSW 13.4 km/h 28.0 km/h 77% 0.0 mm 122 W/m2
11:50 10.3 °C 6.4 °C 1021.6 hPa SW 18.3 km/h 28.0 km/h 77% 0.0 mm 116 W/m2
11:55 10.2 °C 6.2 °C 1021.6 hPa SW 11.1 km/h 24.5 km/h 76% 0.0 mm 119 W/m2
12:00 10.3 °C 6.4 °C 1021.6 hPa SW 17.2 km/h 25.6 km/h 77% 0.0 mm 159 W/m2
12:05 10.5 °C 6.4 °C 1021.6 hPa SW 15.8 km/h 25.6 km/h 76% 0.0 mm 158 W/m2
12:10 10.5 °C 6.4 °C 1021.6 hPa SW 20.9 km/h 25.6 km/h 76% 0.0 mm 123 W/m2
12:15 10.4 °C 6.2 °C 1021.2 hPa SW 20.9 km/h 27.0 km/h 75% 0.0 mm 137 W/m2
12:20 10.5 °C 6.3 °C 1021.6 hPa WSW 14.8 km/h 27.0 km/h 75% 0.0 mm 145 W/m2
12:25 10.6 °C 6.3 °C 1021.2 hPa WSW 20.9 km/h 27.0 km/h 75% 0.0 mm 165 W/m2
12:30 10.8 °C 6.6 °C 1021.2 hPa WSW 14.8 km/h 29.4 km/h 75% 0.0 mm 178 W/m2
12:50 11.4 °C 6.9 °C 1021.2 hPa SW 15.8 km/h 25.6 km/h 74% 0.0 mm 184 W/m2
12:55 11.4 °C 6.7 °C 1021.2 hPa SW 12.2 km/h 24.5 km/h 73% 0.0 mm 183 W/m2
13:00 11.3 °C 6.7 °C 1021.2 hPa WSW 15.8 km/h 23.3 km/h 73% 0.0 mm 159 W/m2
13:05 11.1 °C 6.4 °C 1021.2 hPa SW 14.8 km/h 23.3 km/h 73% 0.0 mm 170 W/m2
13:10 11.1 °C 6.4 °C 1021.2 hPa SW 18.3 km/h 21.9 km/h 73% 0.0 mm 179 W/m2
13:15 10.9 °C 6.7 °C 1021.2 hPa WSW 12.2 km/h 23.3 km/h 75% 0.0 mm 169 W/m2
13:20 10.9 °C 6.4 °C 1021.2 hPa WSW 15.8 km/h 23.3 km/h 74% 0.0 mm 148 W/m2
13:25 10.9 °C 6.4 °C 1020.9 hPa West 9.7 km/h 20.9 km/h 74% 0.0 mm 148 W/m2
13:30 10.9 °C 6.4 °C 1020.9 hPa WSW 11.1 km/h 20.9 km/h 74% 0.0 mm 152 W/m2
13:35 10.9 °C 6.4 °C 1020.9 hPa SW 15.8 km/h 23.3 km/h 74% 0.0 mm 133 W/m2
13:40 11.1 °C 6.4 °C 1020.9 hPa SW 15.8 km/h 23.3 km/h 73% 0.0 mm 88 W/m2
13:45 11.2 °C 6.3 °C 1020.9 hPa WSW 17.2 km/h 23.3 km/h 72% 0.0 mm 115 W/m2
13:50 11.3 °C 6.4 °C 1020.9 hPa WSW 17.2 km/h 21.9 km/h 72% 0.0 mm 95 W/m2
13:55 11.7 °C 6.8 °C 1020.9 hPa SW 9.7 km/h 21.9 km/h 72% 0.0 mm 116 W/m2
14:00 11.4 °C 6.1 °C 1020.9 hPa SW 11.1 km/h 20.9 km/h 70% 0.0 mm 109 W/m2
14:05 11.1 °C 6.2 °C 1020.9 hPa SW 12.2 km/h 20.9 km/h 72% 0.0 mm 116 W/m2
14:10 11.4 °C 6.6 °C 1020.9 hPa SW 12.2 km/h 20.9 km/h 72% 0.0 mm 124 W/m2
14:15 11.9 °C 6.6 °C 1020.9 hPa WSW 8.7 km/h 21.9 km/h 70% 0.0 mm 109 W/m2
14:20 12.1 °C 6.2 °C 1020.9 hPa West 13.4 km/h 21.9 km/h 67% 0.0 mm 240 W/m2
14:25 12.3 °C 6.1 °C 1020.9 hPa West 8.7 km/h 21.9 km/h 66% 0.0 mm 174 W/m2
14:30 12.2 °C 6.3 °C 1020.9 hPa WSW 8.7 km/h 20.9 km/h 67% 0.0 mm 206 W/m2
14:35 12.2 °C 6.1 °C 1020.9 hPa WSW 8.7 km/h 15.8 km/h 66% 0.0 mm 51 W/m2
14:40 11.3 °C 5.6 °C 1020.9 hPa WSW 7.2 km/h 19.5 km/h 68% 0.0 mm 81 W/m2
14:45 11.4 °C 6.3 °C 1020.9 hPa West 6.1 km/h 19.5 km/h 71% 0.0 mm 202 W/m2
14:50 12.4 °C 6.9 °C 1020.9 hPa WSW 8.7 km/h 19.5 km/h 69% 0.0 mm 191 W/m2
14:55 12.6 °C 6.6 °C 1020.9 hPa WSW 3.5 km/h 13.4 km/h 67% 0.0 mm 183 W/m2
15:00 12.6 °C 6.6 °C 1021.2 hPa West 9.7 km/h 13.4 km/h 67% 0.0 mm 177 W/m2
15:05 12.3 °C 5.9 °C 1021.2 hPa WSW 7.2 km/h 19.5 km/h 65% 0.0 mm 163 W/m2
15:10 12.3 °C 6.1 °C 1020.9 hPa WSW 8.7 km/h 19.5 km/h 66% 0.0 mm 153 W/m2
15:15 12.5 °C 6.3 °C 1021.2 hPa SW 12.2 km/h 15.8 km/h 66% 0.0 mm 145 W/m2
15:20 12.4 °C 6.0 °C 1021.2 hPa SW 8.7 km/h 17.2 km/h 65% 0.0 mm 138 W/m2
15:25 12.4 °C 6.0 °C 1021.2 hPa SW 9.7 km/h 17.2 km/h 65% 0.0 mm 131 W/m2
15:30 12.4 °C 6.2 °C 1021.2 hPa SW 7.2 km/h 17.2 km/h 66% 0.0 mm 122 W/m2
15:35 12.7 °C 6.5 °C 1021.2 hPa SW 8.7 km/h 17.2 km/h 66% 0.0 mm 114 W/m2
15:40 12.5 °C 6.1 °C 1021.2 hPa SW 9.7 km/h 15.8 km/h 65% 0.0 mm 105 W/m2
15:45 12.3 °C 6.1 °C 1021.2 hPa WSW 6.1 km/h 18.3 km/h 66% 0.0 mm 93 W/m2
15:50 12.3 °C 5.9 °C 1021.2 hPa SW 9.7 km/h 18.3 km/h 65% 0.0 mm 81 W/m2
15:55 12.3 °C 6.1 °C 1021.2 hPa SW 9.7 km/h 17.2 km/h 66% 0.0 mm 73 W/m2
16:00 12.2 °C 6.1 °C 1021.6 hPa WSW 6.1 km/h 14.8 km/h 66% 0.0 mm 65 W/m2
16:05 12.4 °C 6.2 °C 1021.6 hPa WSW 6.1 km/h 14.8 km/h 66% 0.0 mm 57 W/m2
16:10 12.3 °C 6.1 °C 1021.6 hPa SW 6.1 km/h 9.7 km/h 66% 0.0 mm 50 W/m2
16:15 12.3 °C 6.1 °C 1021.6 hPa SW 5.0 km/h 9.7 km/h 66% 0.0 mm 44 W/m2
16:20 12.3 °C 6.3 °C 1021.6 hPa SW 5.0 km/h 9.7 km/h 67% 0.0 mm 38 W/m2
16:25 12.3 °C 6.3 °C 1021.6 hPa WSW 2.6 km/h 8.7 km/h 67% 0.0 mm 32 W/m2
16:30 12.1 °C 5.7 °C 1021.6 hPa WSW 6.1 km/h 12.2 km/h 65% 0.0 mm 28 W/m2
16:35 11.7 °C 5.8 °C 1021.6 hPa WSW 5.0 km/h 12.2 km/h 67% 0.0 mm 24 W/m2
16:40 11.6 °C 5.9 °C 1021.6 hPa WSW 3.5 km/h 12.2 km/h 68% 0.0 mm 20 W/m2
16:45 11.5 °C 6.0 °C 1021.6 hPa SW 3.5 km/h 8.7 km/h 69% 0.0 mm 17 W/m2
16:50 11.3 °C 5.8 °C 1021.6 hPa SW 3.5 km/h 8.7 km/h 69% 0.0 mm 12 W/m2
16:55 10.9 °C 5.8 °C 1021.6 hPa WSW 2.6 km/h 8.7 km/h 71% 0.0 mm 6 W/m2
17:00 10.5 °C 5.9 °C 1021.6 hPa SW 3.5 km/h 8.7 km/h 73% 0.0 mm 2 W/m2
17:05 10.1 °C 5.7 °C 1021.6 hPa SW 1.1 km/h 7.2 km/h 74% 0.0 mm 0 W/m2
17:10 9.9 °C 5.7 °C 1021.6 hPa Calm   7.2 km/h 75% 0.0 mm 0 W/m2
17:15 9.6 °C 5.6 °C 1021.6 hPa West 1.1 km/h 5.0 km/h 76% 0.0 mm 0 W/m2
17:20 9.5 °C 5.5 °C 1021.6 hPa Calm   3.5 km/h 76% 0.0 mm 0 W/m2
17:25 9.3 °C 5.3 °C 1021.9 hPa NW 1.1 km/h 3.5 km/h 76% 0.0 mm 0 W/m2
17:30 9.2 °C 5.2 °C 1021.9 hPa WNW 1.1 km/h 3.5 km/h 76% 0.0 mm 0 W/m2
17:31 9.2 °C 5.2 °C 1021.9 hPa WNW 1.1 km/h 3.5 km/h 76% 0.0 mm 0 W/m2
17:36 9.1 °C 5.3 °C 1021.9 hPa Calm   3.5 km/h 77% 0.0 mm 0 W/m2
17:41 9.1 °C 5.4 °C 1021.9 hPa WNW 3.5 km/h 5.0 km/h 78% 0.0 mm 0 W/m2
17:46 9.2 °C 5.8 °C 1021.9 hPa Calm   5.0 km/h 79% 0.0 mm 0 W/m2
17:51 9.1 °C 5.7 °C 1021.9 hPa WNW 1.1 km/h 5.0 km/h 79% 0.0 mm 0 W/m2
17:56 8.8 °C 5.6 °C 1022.2 hPa North 1.1 km/h 2.6 km/h 80% 0.0 mm 0 W/m2
18:01 8.5 °C 5.6 °C 1021.9 hPa NNE 2.6 km/h 6.1 km/h 82% 0.0 mm 0 W/m2
18:06 8.3 °C 5.8 °C 1022.2 hPa North 2.6 km/h 6.1 km/h 84% 0.0 mm 0 W/m2
18:11 8.2 °C 5.8 °C 1022.2 hPa North 2.6 km/h 5.0 km/h 85% 0.0 mm 0 W/m2
18:16 8.1 °C 5.9 °C 1022.2 hPa North 2.6 km/h 5.0 km/h 86% 0.0 mm 0 W/m2
18:37 7.9 °C 6.1 °C 1022.6 hPa North 2.6 km/h 5.0 km/h 88% 0.0 mm 0 W/m2
18:42 7.9 °C 6.2 °C 1022.2 hPa North 3.5 km/h 6.1 km/h 89% 0.0 mm 0 W/m2
18:47 7.9 °C 6.2 °C 1022.6 hPa North 2.6 km/h 6.1 km/h 89% 0.0 mm 0 W/m2
18:52 7.9 °C 6.2 °C 1022.6 hPa North 2.6 km/h 5.0 km/h 89% 0.0 mm 0 W/m2
18:57 7.9 °C 6.4 °C 1022.6 hPa Calm   5.0 km/h 90% 0.0 mm 0 W/m2
19:02 7.8 °C 6.1 °C 1022.6 hPa Calm   2.6 km/h 89% 0.0 mm 0 W/m2
19:07 7.8 °C 6.3 °C 1022.6 hPa NNW 2.6 km/h 3.5 km/h 90% 0.0 mm 0 W/m2
19:12 7.9 °C 6.4 °C 1022.6 hPa NNW 2.6 km/h 5.0 km/h 90% 0.0 mm 0 W/m2
19:17 7.9 °C 6.4 °C 1022.9 hPa North 2.6 km/h 5.0 km/h 90% 0.0 mm 0 W/m2
19:22 7.9 °C 6.4 °C 1022.6 hPa Calm   5.0 km/h 90% 0.0 mm 0 W/m2
19:27 7.9 °C 6.4 °C 1022.9 hPa Calm   5.0 km/h 90% 0.0 mm 0 W/m2
19:32 7.9 °C 6.4 °C 1022.9 hPa NNW 3.5 km/h 5.0 km/h 90% 0.0 mm 0 W/m2
19:37 7.8 °C 6.3 °C 1022.6 hPa NNW 2.6 km/h 6.1 km/h 90% 0.0 mm 0 W/m2
19:42 7.8 °C 6.3 °C 1022.9 hPa North 1.1 km/h 6.1 km/h 90% 0.0 mm 0 W/m2
19:47 7.8 °C 6.3 °C 1022.9 hPa NNW 2.6 km/h 6.1 km/h 90% 0.0 mm 0 W/m2
19:52 7.8 °C 6.4 °C 1022.9 hPa North 2.6 km/h 6.1 km/h 91% 0.0 mm 0 W/m2
19:57 7.8 °C 6.4 °C 1022.9 hPa North 1.1 km/h 6.1 km/h 91% 0.0 mm 0 W/m2
20:02 7.8 °C 6.4 °C 1022.9 hPa North 2.6 km/h 6.1 km/h 91% 0.0 mm 0 W/m2
20:07 7.7 °C 6.3 °C 1022.9 hPa North 1.1 km/h 5.0 km/h 91% 0.0 mm 0 W/m2
20:12 7.6 °C 6.2 °C 1022.9 hPa North 2.6 km/h 5.0 km/h 91% 0.0 mm 0 W/m2
20:17 7.6 °C 6.2 °C 1022.9 hPa Calm   3.5 km/h 91% 0.0 mm 0 W/m2
20:22 7.6 °C 6.2 °C 1022.9 hPa North 1.1 km/h 5.0 km/h 91% 0.0 mm 0 W/m2
20:28 7.6 °C 6.2 °C 1022.9 hPa North 1.1 km/h 5.0 km/h 91% 0.0 mm 0 W/m2
20:33 7.6 °C 6.2 °C 1023.2 hPa North 1.1 km/h 5.0 km/h 91% 0.0 mm 0 W/m2
20:38 7.6 °C 6.4 °C 1023.2 hPa North 2.6 km/h 5.0 km/h 92% 0.0 mm 0 W/m2
20:43 7.5 °C 6.3 °C 1022.9 hPa North 3.5 km/h 5.0 km/h 92% 0.0 mm 0 W/m2
20:48 7.4 °C 6.2 °C 1023.2 hPa NNE 1.1 km/h 5.0 km/h 92% 0.0 mm 0 W/m2
20:53 7.4 °C 6.2 °C 1023.2 hPa NNE 3.5 km/h 6.1 km/h 92% 0.0 mm 0 W/m2
20:58 7.4 °C 6.2 °C 1023.2 hPa NNW 3.5 km/h 6.1 km/h 92% 0.0 mm 0 W/m2
21:03 7.3 °C 6.1 °C 1022.9 hPa NNW 2.6 km/h 6.1 km/h 92% 0.0 mm 0 W/m2
21:08 7.3 °C 6.1 °C 1023.2 hPa NNW 5.0 km/h 7.2 km/h 92% 0.0 mm 0 W/m2
21:13 7.2 °C 6.0 °C 1022.9 hPa NNW 5.0 km/h 8.7 km/h 92% 0.0 mm 0 W/m2
21:18 7.1 °C 5.9 °C 1022.9 hPa North 3.5 km/h 8.7 km/h 92% 0.0 mm 0 W/m2
21:23 7.0 °C 5.8 °C 1023.2 hPa NNW 2.6 km/h 6.1 km/h 92% 0.0 mm 0 W/m2
21:28 6.9 °C 5.8 °C 1023.2 hPa NNW 2.6 km/h 6.1 km/h 93% 0.0 mm 0 W/m2
21:33 6.7 °C 5.7 °C 1023.2 hPa NNW 3.5 km/h 6.1 km/h 93% 0.0 mm 0 W/m2
21:38 6.7 °C 5.7 °C 1023.2 hPa NNW 3.5 km/h 6.1 km/h 93% 0.0 mm 0 W/m2
21:43 6.6 °C 5.6 °C 1023.2 hPa NNW 3.5 km/h 6.1 km/h 93% 0.0 mm 0 W/m2
21:48 6.5 °C 5.4 °C 1022.9 hPa NNW 5.0 km/h 6.1 km/h 93% 0.0 mm 0 W/m2
21:53 6.4 °C 5.3 °C 1023.2 hPa NW 3.5 km/h 6.1 km/h 93% 0.0 mm 0 W/m2
21:58 6.3 °C 5.3 °C 1023.2 hPa NW 3.5 km/h 7.2 km/h 93% 0.0 mm 0 W/m2
22:03 6.2 °C 5.2 °C 1023.2 hPa NW 3.5 km/h 7.2 km/h 93% 0.0 mm 0 W/m2
22:08 6.1 °C 5.1 °C 1023.2 hPa NW 3.5 km/h 6.1 km/h 93% 0.0 mm 0 W/m2
22:13 6.0 °C 4.9 °C 1023.2 hPa NW 3.5 km/h 5.0 km/h 93% 0.0 mm 0 W/m2
22:18 5.8 °C 4.9 °C 1022.9 hPa NNW 3.5 km/h 6.1 km/h 94% 0.0 mm 0 W/m2
22:23 5.7 °C 4.8 °C 1023.2 hPa North 3.5 km/h 6.1 km/h 94% 0.0 mm 0 W/m2
22:28 5.5 °C 4.6 °C 1023.2 hPa NNW 2.6 km/h 6.1 km/h 94% 0.0 mm 0 W/m2
22:34 5.3 °C 4.4 °C 1023.2 hPa NNW 2.6 km/h 5.0 km/h 94% 0.0 mm 0 W/m2
22:40 5.2 °C 4.3 °C 1023.2 hPa NNW 2.6 km/h 5.0 km/h 94% 0.0 mm 0 W/m2
22:45 5.1 °C 4.2 °C 1023.2 hPa NNW 2.6 km/h 5.0 km/h 94% 0.0 mm 0 W/m2
22:49 4.9 °C 4.2 °C 1023.2 hPa NNW 2.6 km/h 5.0 km/h 95% 0.0 mm 0 W/m2
22:54 4.8 °C 4.2 °C 1023.2 hPa NW 3.5 km/h 5.0 km/h 96% 0.0 mm 0 W/m2
23:00 4.7 °C 4.1 °C 1023.2 hPa NNW 3.5 km/h 5.0 km/h 96% 0.0 mm 0 W/m2
23:04 4.5 °C 3.9 °C 1023.2 hPa NNW 3.5 km/h 6.1 km/h 96% 0.0 mm 0 W/m2
23:10 4.5 °C 3.9 °C 1023.6 hPa NW 3.5 km/h 6.1 km/h 96% 0.0 mm 0 W/m2
23:15 4.4 °C 3.8 °C 1023.6 hPa NW 5.0 km/h 7.2 km/h 96% 0.0 mm 0 W/m2
23:20 4.3 °C 3.7 °C 1023.2 hPa NNW 5.0 km/h 7.2 km/h 96% 0.0 mm 0 W/m2
23:24 4.3 °C 3.7 °C 1023.2 hPa NNW 5.0 km/h 7.2 km/h 96% 0.0 mm 0 W/m2
23:30 4.3 °C 3.9 °C 1023.6 hPa North 1.1 km/h 6.1 km/h 97% 0.0 mm 0 W/m2
23:35 4.3 °C 3.9 °C 1023.6 hPa North 2.6 km/h 5.0 km/h 97% 0.0 mm 0 W/m2
23:40 4.5 °C 4.1 °C 1023.2 hPa North 3.5 km/h 5.0 km/h 97% 0.0 mm 0 W/m2
23:45 4.3 °C 3.9 °C 1023.2 hPa NNW 2.6 km/h 5.0 km/h 97% 0.0 mm 0 W/m2
23:50 4.3 °C 3.9 °C 1023.6 hPa NNW 2.6 km/h 5.0 km/h 97% 0.0 mm 0 W/m2
23:55 4.3 °C 3.9 °C 1023.6 hPa North 3.5 km/h 5.0 km/h 97% 0.0 mm 0 W/m2
Northern Hawkes Bay. New Zealand Historic Data
Compliments of Weather Underground - 2.25 mb